createdAt,value
2018-03-04T00:00:09.462Z,64.97
2018-03-04T00:01:12.862Z,64.97
2018-03-04T00:02:16.340Z,64.97
2018-03-04T00:03:19.671Z,65.00
2018-03-04T00:04:23.344Z,65.01
2018-03-04T00:05:26.713Z,65.04
2018-03-04T00:06:30.200Z,65.06
2018-03-04T00:07:33.509Z,65.13
2018-03-04T00:08:36.886Z,65.16
2018-03-04T00:09:40.255Z,65.15
2018-03-04T00:10:43.585Z,65.19
2018-03-04T00:11:46.953Z,65.22
2018-03-04T00:12:50.346Z,65.21
2018-03-04T00:13:53.745Z,65.21
2018-03-04T00:14:57.079Z,65.21
2018-03-04T00:16:00.457Z,65.26
2018-03-04T00:17:03.858Z,65.27
2018-03-04T00:18:07.187Z,65.28
2018-03-04T00:19:10.512Z,65.29
2018-03-04T00:20:13.827Z,65.27
2018-03-04T00:21:17.146Z,65.27
2018-03-04T00:22:20.548Z,65.29
2018-03-04T00:23:23.894Z,65.33
2018-03-04T00:24:27.284Z,65.34
2018-03-04T00:25:30.636Z,65.35
2018-03-04T00:26:34.015Z,65.39
2018-03-04T00:27:37.330Z,65.38
2018-03-04T00:28:40.689Z,65.42
2018-03-04T00:29:44.080Z,65.45
2018-03-04T00:30:47.493Z,65.46
2018-03-04T00:31:50.879Z,65.51
2018-03-04T00:32:54.195Z,65.55
2018-03-04T00:33:57.549Z,65.59
2018-03-04T00:35:00.928Z,65.61
2018-03-04T00:36:04.392Z,65.62
2018-03-04T00:37:07.782Z,65.63
2018-03-04T00:38:11.113Z,65.65
2018-03-04T00:39:14.513Z,65.61
2018-03-04T00:40:17.855Z,65.65
2018-03-04T00:41:21.178Z,65.67
2018-03-04T00:42:24.521Z,65.70
2018-03-04T00:43:27.945Z,65.74
2018-03-04T00:44:31.297Z,65.73
2018-03-04T00:45:34.686Z,65.77
2018-03-04T00:46:38.176Z,65.78
2018-03-04T00:47:41.480Z,65.79
2018-03-04T00:48:44.821Z,65.82
2018-03-04T00:49:48.228Z,65.85
2018-03-04T00:50:51.559Z,65.88
2018-03-04T00:51:54.961Z,65.89
2018-03-04T00:52:58.256Z,65.89
2018-03-04T00:54:01.646Z,65.89
2018-03-04T00:55:04.981Z,65.88
2018-03-04T00:56:08.347Z,65.88
2018-03-04T00:57:11.652Z,65.87
2018-03-04T00:58:14.985Z,65.88
2018-03-04T00:59:18.329Z,65.87
2018-03-04T01:00:21.740Z,65.90
2018-03-04T01:01:25.075Z,65.95
2018-03-04T01:02:28.501Z,65.99
2018-03-04T01:03:31.895Z,66.00
2018-03-04T01:04:35.431Z,66.08
2018-03-04T01:05:38.856Z,66.12
2018-03-04T01:06:42.245Z,66.16
2018-03-04T01:07:45.584Z,66.17
2018-03-04T01:08:48.977Z,66.21
2018-03-04T01:09:52.303Z,66.27
2018-03-04T01:10:55.732Z,66.34
2018-03-04T01:11:59.072Z,66.34
2018-03-04T01:13:02.444Z,66.35
2018-03-04T01:14:05.802Z,66.39
2018-03-04T01:15:09.249Z,66.42
2018-03-04T01:16:12.565Z,66.46
2018-03-04T01:17:15.993Z,66.50
2018-03-04T01:18:19.411Z,66.54
2018-03-04T01:19:22.776Z,66.55
2018-03-04T01:20:26.082Z,66.55
2018-03-04T01:21:29.433Z,66.55
2018-03-04T01:22:32.814Z,66.55
2018-03-04T01:23:36.109Z,66.55
2018-03-04T01:24:39.571Z,66.53
2018-03-04T01:25:42.908Z,66.53
2018-03-04T01:26:46.240Z,66.53
2018-03-04T01:27:49.573Z,66.60
2018-03-04T01:28:52.887Z,66.61
2018-03-04T01:29:56.239Z,66.64
2018-03-04T01:30:59.705Z,66.60
2018-03-04T01:32:03.160Z,66.62
2018-03-04T01:33:06.500Z,66.63
2018-03-04T01:34:09.903Z,66.62
2018-03-04T01:35:13.321Z,66.65
2018-03-04T01:36:16.666Z,66.67
2018-03-04T01:37:20.049Z,66.69
2018-03-04T01:38:23.470Z,66.71
2018-03-04T01:39:26.834Z,66.72
2018-03-04T01:40:30.181Z,66.72
2018-03-04T01:41:33.525Z,66.73
2018-03-04T01:42:36.852Z,66.75
2018-03-04T01:43:40.230Z,66.76
2018-03-04T01:44:43.593Z,66.79
2018-03-04T01:45:46.917Z,66.83
2018-03-04T01:46:50.261Z,66.84
2018-03-04T01:47:53.713Z,66.91
2018-03-04T01:48:57.040Z,66.98
2018-03-04T01:50:00.344Z,67.05
2018-03-04T01:51:03.673Z,67.12
2018-03-04T01:52:07.048Z,67.22
2018-03-04T01:53:10.499Z,67.29
2018-03-04T01:54:13.882Z,67.30
2018-03-04T01:55:17.214Z,67.34
2018-03-04T01:56:20.529Z,67.36
2018-03-04T01:57:23.885Z,67.40
2018-03-04T01:58:27.296Z,67.43
2018-03-04T01:59:30.616Z,67.44
2018-03-04T02:00:33.958Z,67.44
2018-03-04T02:01:37.388Z,67.42
2018-03-04T02:02:40.758Z,67.40
2018-03-04T02:03:44.121Z,67.40
2018-03-04T02:04:47.797Z,67.38
2018-03-04T02:05:51.133Z,67.39
2018-03-04T02:06:54.582Z,67.36
2018-03-04T02:07:57.945Z,67.33
2018-03-04T02:09:01.454Z,67.33
2018-03-04T02:10:04.814Z,67.32
2018-03-04T02:11:08.140Z,67.30
2018-03-04T02:12:11.600Z,67.29
2018-03-04T02:13:14.910Z,67.27
2018-03-04T02:14:18.260Z,67.25
2018-03-04T02:15:21.662Z,67.29
2018-03-04T02:16:24.966Z,67.28
2018-03-04T02:17:28.315Z,67.25
2018-03-04T02:18:31.704Z,67.28
2018-03-04T02:19:35.121Z,67.27
2018-03-04T02:20:38.495Z,67.27
2018-03-04T02:21:41.824Z,67.29
2018-03-04T02:22:45.132Z,67.30
2018-03-04T02:23:48.451Z,67.28
2018-03-04T02:24:51.844Z,67.29
2018-03-04T02:25:55.176Z,67.34
2018-03-04T02:26:58.485Z,67.34
2018-03-04T02:28:01.873Z,67.35
2018-03-04T02:29:05.398Z,67.36
2018-03-04T02:30:08.784Z,67.36
2018-03-04T02:31:12.134Z,67.36
2018-03-04T02:32:15.446Z,67.35
2018-03-04T02:33:18.862Z,67.35
2018-03-04T02:34:22.182Z,67.36
2018-03-04T02:35:25.576Z,67.36
2018-03-04T02:36:28.914Z,67.36
2018-03-04T02:37:32.242Z,67.35
2018-03-04T02:38:35.711Z,67.33
2018-03-04T02:39:39.018Z,67.34
2018-03-04T02:40:42.371Z,67.36
2018-03-04T02:41:45.786Z,67.39
2018-03-04T02:42:49.104Z,67.39
2018-03-04T02:43:52.453Z,67.41
2018-03-04T02:44:55.848Z,67.43
2018-03-04T02:45:59.284Z,67.44
2018-03-04T02:47:02.605Z,67.44
2018-03-04T02:48:05.966Z,67.45
2018-03-04T02:49:09.337Z,67.48
2018-03-04T02:50:12.724Z,67.49
2018-03-04T02:51:16.459Z,67.49
2018-03-04T02:52:19.774Z,67.50
2018-03-04T02:53:23.125Z,67.52
2018-03-04T02:54:26.425Z,67.52
2018-03-04T02:55:29.797Z,67.54
2018-03-04T02:56:33.184Z,67.56
2018-03-04T02:57:36.487Z,67.60
2018-03-04T02:59:03.117Z,67.60
2018-03-04T03:00:06.461Z,67.66
2018-03-04T03:01:09.805Z,67.66
2018-03-04T03:02:13.131Z,67.65
2018-03-04T03:03:16.465Z,67.66
2018-03-04T03:04:19.838Z,67.65
2018-03-04T03:05:23.270Z,67.63
2018-03-04T03:06:26.795Z,67.66
2018-03-04T03:07:30.130Z,67.69
2018-03-04T03:08:33.442Z,67.67
2018-03-04T03:09:36.880Z,67.68
2018-03-04T03:10:40.260Z,67.71
2018-03-04T03:11:43.569Z,67.73
2018-03-04T03:12:46.967Z,67.74
2018-03-04T03:13:50.316Z,67.75
2018-03-04T03:14:53.624Z,67.77
2018-03-04T03:15:57.012Z,67.79
2018-03-04T03:17:00.353Z,67.77
2018-03-04T03:18:03.765Z,67.79
2018-03-04T03:19:07.124Z,67.81
2018-03-04T03:20:10.422Z,67.82
2018-03-04T03:21:13.766Z,67.83
2018-03-04T03:22:17.082Z,67.82
2018-03-04T03:23:20.487Z,67.83
2018-03-04T03:24:23.821Z,67.86
2018-03-04T03:25:27.209Z,67.85
2018-03-04T03:26:30.527Z,67.87
2018-03-04T03:27:33.860Z,67.91
2018-03-04T03:28:37.211Z,67.91
2018-03-04T03:29:40.543Z,67.93
2018-03-04T03:30:43.881Z,67.92
2018-03-04T03:31:47.241Z,67.91
2018-03-04T03:32:50.554Z,67.93
2018-03-04T03:33:53.957Z,67.95
2018-03-04T03:34:57.268Z,67.96
2018-03-04T03:36:00.620Z,67.97
2018-03-04T03:37:03.938Z,67.99
2018-03-04T03:38:07.275Z,68.01
2018-03-04T03:39:10.717Z,68.04
2018-03-04T03:40:14.072Z,68.08
2018-03-04T03:41:17.408Z,68.10
2018-03-04T03:42:20.753Z,68.10
2018-03-04T03:43:24.078Z,68.13
2018-03-04T03:44:27.580Z,68.17
2018-03-04T03:45:30.916Z,68.17
2018-03-04T03:46:34.221Z,68.18
2018-03-04T03:47:37.665Z,68.20
2018-03-04T03:48:41.016Z,68.20
2018-03-04T03:49:44.441Z,68.21
2018-03-04T03:50:47.784Z,68.21
2018-03-04T03:51:51.085Z,68.23
2018-03-04T03:52:54.449Z,68.22
2018-03-04T03:53:57.778Z,68.22
2018-03-04T03:55:01.166Z,68.22
2018-03-04T03:56:04.564Z,68.24
2018-03-04T03:57:07.928Z,68.26
2018-03-04T03:58:11.221Z,68.29
2018-03-04T03:59:14.608Z,68.29
2018-03-04T04:00:18.032Z,68.30
2018-03-04T04:01:21.334Z,68.32
2018-03-04T04:02:24.825Z,68.34
2018-03-04T04:03:28.132Z,68.34
2018-03-04T04:04:31.450Z,68.35
2018-03-04T04:05:35.018Z,68.36
2018-03-04T04:06:38.424Z,68.32
2018-03-04T04:07:41.773Z,68.31
2018-03-04T04:08:45.162Z,68.30
2018-03-04T04:09:48.562Z,68.30
2018-03-04T04:10:51.920Z,68.34
2018-03-04T04:11:55.268Z,68.42
2018-03-04T04:12:58.648Z,68.45
2018-03-04T04:14:02.042Z,68.52
2018-03-04T04:15:05.360Z,68.61
2018-03-04T04:16:08.747Z,68.67
2018-03-04T04:17:12.106Z,68.74
2018-03-04T04:18:15.408Z,68.81
2018-03-04T04:19:18.748Z,68.83
2018-03-04T04:20:22.109Z,68.86
2018-03-04T04:21:25.470Z,68.92
2018-03-04T04:22:28.806Z,68.97
2018-03-04T04:23:32.191Z,69.02
2018-03-04T04:24:35.524Z,69.10
2018-03-04T04:25:38.956Z,69.17
2018-03-04T04:26:42.295Z,69.21
2018-03-04T04:27:45.626Z,69.24
2018-03-04T04:28:48.949Z,69.26
2018-03-04T04:29:52.357Z,69.28
2018-03-04T04:30:55.679Z,69.28
2018-03-04T04:31:59.013Z,69.30
2018-03-04T04:33:02.349Z,69.32
2018-03-04T04:34:05.681Z,69.34
2018-03-04T04:35:09.023Z,69.36
2018-03-04T04:36:12.340Z,69.38
2018-03-04T04:37:15.732Z,69.38
2018-03-04T04:38:19.086Z,69.39
2018-03-04T04:39:22.397Z,69.38
2018-03-04T04:40:25.803Z,69.39
2018-03-04T04:41:29.132Z,69.41
2018-03-04T04:42:32.522Z,69.40
2018-03-04T04:43:35.837Z,69.39
2018-03-04T04:44:39.214Z,69.40
2018-03-04T04:45:42.519Z,69.44
2018-03-04T04:46:45.841Z,69.41
2018-03-04T04:47:49.232Z,69.39
2018-03-04T04:48:52.579Z,69.39
2018-03-04T04:49:55.906Z,69.39
2018-03-04T04:50:59.290Z,69.39
2018-03-04T04:52:02.623Z,69.34
2018-03-04T04:53:06.040Z,69.33
2018-03-04T04:54:09.347Z,69.34
2018-03-04T04:55:12.694Z,69.33
2018-03-04T04:56:16.147Z,69.33
2018-03-04T04:57:19.557Z,69.31
2018-03-04T04:58:22.936Z,69.29
2018-03-04T04:59:26.292Z,69.27
2018-03-04T05:00:29.572Z,69.25
2018-03-04T05:01:32.999Z,69.24
2018-03-04T05:02:36.415Z,69.20
2018-03-04T05:03:39.797Z,69.20
2018-03-04T05:04:43.198Z,69.19
2018-03-04T05:05:46.833Z,69.18
2018-03-04T05:06:50.229Z,69.17
2018-03-04T05:07:53.549Z,69.14
2018-03-04T05:08:56.910Z,69.12
2018-03-04T05:10:00.297Z,69.14
2018-03-04T05:11:03.603Z,69.15
2018-03-04T05:12:06.957Z,69.15
2018-03-04T05:13:10.303Z,69.18
2018-03-04T05:14:13.710Z,69.17
2018-03-04T05:15:17.061Z,69.18
2018-03-04T05:16:20.432Z,69.18
2018-03-04T05:17:23.745Z,69.18
2018-03-04T05:18:27.086Z,69.19
2018-03-04T05:19:30.478Z,69.18
2018-03-04T05:20:33.795Z,69.17
2018-03-04T05:21:37.194Z,69.16
2018-03-04T05:22:40.571Z,69.17
2018-03-04T05:23:43.895Z,69.20
2018-03-04T05:24:47.258Z,69.23
2018-03-04T05:25:50.565Z,69.23
2018-03-04T05:26:53.963Z,69.22
2018-03-04T05:27:57.283Z,69.22
2018-03-04T05:29:00.660Z,69.22
2018-03-04T05:30:04.058Z,69.22
2018-03-04T05:31:07.395Z,69.20
2018-03-04T05:32:10.715Z,69.22
2018-03-04T05:33:14.131Z,69.25
2018-03-04T05:34:17.501Z,69.24
2018-03-04T05:35:20.874Z,69.25
2018-03-04T05:36:24.233Z,69.25
2018-03-04T05:37:27.608Z,69.25
2018-03-04T05:38:31.000Z,69.25
2018-03-04T05:39:34.333Z,69.23
2018-03-04T05:40:37.712Z,69.24
2018-03-04T05:41:41.056Z,69.26
2018-03-04T05:42:44.380Z,69.27
2018-03-04T05:43:47.756Z,69.29
2018-03-04T05:44:51.096Z,69.32
2018-03-04T05:45:54.564Z,69.34
2018-03-04T05:46:57.919Z,69.35
2018-03-04T05:48:01.321Z,69.36
2018-03-04T05:49:04.646Z,69.36
2018-03-04T05:50:08.039Z,69.36
2018-03-04T05:51:11.452Z,69.38
2018-03-04T05:52:14.806Z,69.39
2018-03-04T05:53:18.121Z,69.39
2018-03-04T05:54:21.481Z,69.39
2018-03-04T05:55:24.833Z,69.40
2018-03-04T05:56:28.342Z,69.41
2018-03-04T05:57:31.744Z,69.39
2018-03-04T05:58:35.133Z,69.39
2018-03-04T05:59:38.502Z,69.41
2018-03-04T06:00:41.825Z,69.42
2018-03-04T06:01:45.234Z,69.43
2018-03-04T06:02:48.599Z,69.37
2018-03-04T06:03:51.945Z,69.38
2018-03-04T06:04:55.372Z,69.41
2018-03-04T06:05:58.831Z,69.43
2018-03-04T06:07:02.169Z,69.44
2018-03-04T06:08:05.515Z,69.44
2018-03-04T06:09:08.881Z,69.43
2018-03-04T06:10:12.224Z,69.43
2018-03-04T06:11:15.601Z,69.44
2018-03-04T06:12:19.063Z,69.44
2018-03-04T06:13:22.365Z,69.44
2018-03-04T06:14:25.701Z,69.44
2018-03-04T06:15:29.091Z,69.45
2018-03-04T06:16:32.484Z,69.44
2018-03-04T06:17:35.845Z,69.45
2018-03-04T06:18:39.281Z,69.47
2018-03-04T06:19:42.638Z,69.47
2018-03-04T06:20:45.977Z,69.47
2018-03-04T06:21:49.337Z,69.48
2018-03-04T06:22:52.728Z,69.45
2018-03-04T06:23:56.029Z,69.44
2018-03-04T06:24:59.356Z,69.45
2018-03-04T06:26:02.674Z,69.49
2018-03-04T06:27:06.039Z,69.52
2018-03-04T06:28:09.372Z,69.53
2018-03-04T06:29:12.739Z,69.54
2018-03-04T06:30:16.121Z,69.55
2018-03-04T06:31:19.533Z,69.59
2018-03-04T06:32:22.916Z,69.64
2018-03-04T06:33:26.462Z,69.67
2018-03-04T06:34:29.765Z,69.71
2018-03-04T06:35:33.090Z,69.75
2018-03-04T06:36:36.477Z,69.79
2018-03-04T06:37:39.771Z,69.81
2018-03-04T06:38:43.133Z,69.83
2018-03-04T06:39:46.466Z,69.88
2018-03-04T06:40:49.834Z,69.93
2018-03-04T06:41:53.211Z,69.97
2018-03-04T06:42:56.520Z,69.99
2018-03-04T06:44:00.913Z,70.00
2018-03-04T06:45:04.320Z,70.04
2018-03-04T06:46:07.738Z,70.08
2018-03-04T06:47:11.052Z,70.09
2018-03-04T06:48:14.400Z,70.11
2018-03-04T06:49:17.781Z,70.10
2018-03-04T06:50:21.157Z,70.08
2018-03-04T06:51:24.493Z,70.09
2018-03-04T06:52:27.953Z,70.11
2018-03-04T06:53:31.338Z,70.12
2018-03-04T06:54:34.691Z,70.14
2018-03-04T06:55:38.007Z,70.12
2018-03-04T06:56:41.348Z,70.10
2018-03-04T06:57:44.727Z,70.08
2018-03-04T06:58:48.039Z,70.07
2018-03-04T06:59:51.374Z,70.06
2018-03-04T07:00:54.760Z,70.04
2018-03-04T07:01:58.089Z,70.03
2018-03-04T07:03:01.457Z,69.99
2018-03-04T07:04:04.804Z,69.97
2018-03-04T07:05:08.190Z,69.99
2018-03-04T07:06:11.578Z,69.99
2018-03-04T07:07:14.919Z,70.00
2018-03-04T07:08:18.259Z,70.00
2018-03-04T07:09:21.589Z,69.99
2018-03-04T07:10:25.037Z,69.96
2018-03-04T07:11:28.374Z,69.96
2018-03-04T07:12:31.720Z,69.97
2018-03-04T07:13:35.054Z,69.98
2018-03-04T07:14:38.621Z,69.98
2018-03-04T07:15:41.992Z,69.95
2018-03-04T07:16:45.317Z,69.92
2018-03-04T07:17:48.696Z,69.90
2018-03-04T07:18:52.058Z,69.88
2018-03-04T07:19:55.435Z,69.88
2018-03-04T07:20:58.776Z,69.86
2018-03-04T07:22:02.230Z,69.84
2018-03-04T07:23:05.593Z,69.82
2018-03-04T07:24:08.922Z,69.82
2018-03-04T07:25:12.243Z,69.80
2018-03-04T07:26:15.599Z,69.77
2018-03-04T07:27:19.039Z,69.75
2018-03-04T07:28:22.438Z,69.75
2018-03-04T07:29:25.774Z,69.73
2018-03-04T07:30:29.055Z,69.71
2018-03-04T07:31:32.480Z,69.75
2018-03-04T07:32:35.955Z,69.76
2018-03-04T07:33:39.389Z,69.82
2018-03-04T07:34:42.800Z,69.83
2018-03-04T07:35:46.188Z,69.83
2018-03-04T07:36:49.545Z,69.79
2018-03-04T07:37:53.110Z,69.78
2018-03-04T07:38:56.521Z,69.79
2018-03-04T07:39:59.824Z,69.84
2018-03-04T07:41:03.153Z,69.87
2018-03-04T07:42:06.583Z,69.85
2018-03-04T07:43:09.927Z,69.87
2018-03-04T07:44:13.298Z,69.86
2018-03-04T07:45:16.622Z,69.85
2018-03-04T07:46:20.014Z,69.83
2018-03-04T07:47:23.504Z,69.84
2018-03-04T07:48:26.910Z,69.87
2018-03-04T07:49:30.235Z,69.92
2018-03-04T07:50:33.555Z,69.97
2018-03-04T07:51:36.964Z,70.00
2018-03-04T07:52:40.369Z,70.07
2018-03-04T07:53:43.751Z,70.11
2018-03-04T07:54:47.167Z,70.20
2018-03-04T07:55:50.627Z,70.29
2018-03-04T07:56:53.988Z,70.35
2018-03-04T07:57:57.341Z,70.41
2018-03-04T07:59:00.684Z,70.47
2018-03-04T08:00:04.027Z,70.52
2018-03-04T08:01:07.381Z,70.55
2018-03-04T08:02:10.801Z,70.62
2018-03-04T08:03:14.256Z,70.66
2018-03-04T08:04:17.574Z,70.69
2018-03-04T08:05:20.960Z,70.73
2018-03-04T08:06:24.551Z,70.77
2018-03-04T08:07:27.899Z,70.79
2018-03-04T08:08:31.243Z,70.81
2018-03-04T08:09:34.675Z,70.83
2018-03-04T08:10:37.997Z,70.83
2018-03-04T08:11:41.314Z,70.87
2018-03-04T08:12:44.639Z,70.88
2018-03-04T08:13:48.003Z,70.90
2018-03-04T08:14:51.337Z,70.92
2018-03-04T08:15:54.822Z,70.92
2018-03-04T08:16:58.146Z,70.94
2018-03-04T08:18:01.564Z,70.92
2018-03-04T08:19:04.916Z,70.89
2018-03-04T08:20:08.270Z,70.86
2018-03-04T08:21:11.585Z,70.83
2018-03-04T08:22:14.918Z,70.79
2018-03-04T08:23:18.274Z,70.71
2018-03-04T08:24:33.392Z,70.62
2018-03-04T08:25:36.736Z,70.49
2018-03-04T08:26:51.837Z,70.36
2018-03-04T08:28:06.969Z,70.25
2018-03-04T08:29:10.276Z,70.05
2018-03-04T08:30:13.784Z,69.85
2018-03-04T08:31:17.168Z,69.73
2018-03-04T08:32:20.463Z,69.60
2018-03-04T08:33:23.878Z,69.44
2018-03-04T08:34:27.207Z,69.30
2018-03-04T08:35:30.571Z,69.11
2018-03-04T08:36:33.876Z,68.96
2018-03-04T08:37:37.258Z,68.89
2018-03-04T08:38:40.644Z,68.79
2018-03-04T08:39:44.040Z,68.75
2018-03-04T08:40:47.440Z,68.63
2018-03-04T08:41:50.848Z,68.57
2018-03-04T08:42:54.186Z,68.46
2018-03-04T08:43:57.531Z,68.40
2018-03-04T08:45:00.847Z,68.30
2018-03-04T08:46:04.270Z,68.23
2018-03-04T08:47:07.575Z,68.18
2018-03-04T08:48:10.991Z,68.11
2018-03-04T08:49:14.328Z,68.06
2018-03-04T08:50:17.717Z,67.99
2018-03-04T08:51:21.100Z,67.84
2018-03-04T08:52:24.652Z,67.73
2018-03-04T08:53:27.999Z,67.71
2018-03-04T08:54:31.367Z,67.74
2018-03-04T08:55:34.704Z,67.78
2018-03-04T08:56:38.132Z,67.80
2018-03-04T08:57:41.419Z,67.83
2018-03-04T08:58:44.743Z,67.84
2018-03-04T08:59:48.141Z,67.86
2018-03-04T09:00:51.489Z,67.87
2018-03-04T09:01:54.822Z,67.94
2018-03-04T09:02:58.184Z,68.06
2018-03-04T09:04:01.607Z,68.11
2018-03-04T09:05:04.955Z,68.09
2018-03-04T09:06:08.277Z,68.10
2018-03-04T09:07:11.949Z,68.14
2018-03-04T09:08:15.261Z,68.11
2018-03-04T09:09:18.600Z,68.09
2018-03-04T09:10:21.959Z,68.05
2018-03-04T09:11:25.334Z,67.98
2018-03-04T09:12:28.716Z,67.96
2018-03-04T09:13:32.049Z,67.93
2018-03-04T09:14:35.497Z,67.90
2018-03-04T09:15:38.815Z,67.84
2018-03-04T09:16:42.223Z,67.81
2018-03-04T09:17:45.678Z,67.75
2018-03-04T09:18:49.017Z,67.69
2018-03-04T09:19:52.355Z,67.64
2018-03-04T09:20:55.706Z,67.61
2018-03-04T09:21:59.164Z,67.59
2018-03-04T09:23:02.498Z,67.49
2018-03-04T09:24:05.872Z,67.41
2018-03-04T09:25:09.305Z,67.34
2018-03-04T09:26:12.605Z,67.26
2018-03-04T09:27:15.914Z,67.09
2018-03-04T09:28:19.335Z,66.99
2018-03-04T09:29:22.779Z,66.84
2018-03-04T09:30:26.188Z,66.71
2018-03-04T09:31:29.841Z,66.64
2018-03-04T09:32:33.168Z,66.55
2018-03-04T09:33:36.525Z,66.47
2018-03-04T09:34:39.911Z,66.42
2018-03-04T09:35:43.350Z,66.37
2018-03-04T09:36:46.767Z,66.29
2018-03-04T09:37:50.172Z,66.21
2018-03-04T09:38:53.569Z,66.09
2018-03-04T09:39:57.046Z,65.98
2018-03-04T09:41:00.344Z,65.88
2018-03-04T09:42:03.818Z,65.74
2018-03-04T09:43:07.208Z,65.69
2018-03-04T09:44:10.677Z,65.63
2018-03-04T09:45:14.004Z,65.50
2018-03-04T09:46:17.378Z,65.45
2018-03-04T09:47:20.750Z,65.37
2018-03-04T09:48:24.076Z,65.20
2018-03-04T09:49:27.440Z,65.09
2018-03-04T09:50:30.876Z,65.04
2018-03-04T09:51:34.205Z,64.98
2018-03-04T09:52:37.601Z,64.90
2018-03-04T09:53:40.968Z,64.86
2018-03-04T09:54:44.353Z,64.86
2018-03-04T09:55:47.661Z,64.78
2018-03-04T09:56:51.042Z,64.72
2018-03-04T09:57:54.447Z,64.65
2018-03-04T09:58:57.908Z,64.67
2018-03-04T10:00:01.281Z,64.69
2018-03-04T10:01:04.615Z,64.68
2018-03-04T10:02:07.996Z,64.59
2018-03-04T10:03:11.329Z,64.57
2018-03-04T10:04:14.813Z,64.57
2018-03-04T10:05:18.159Z,64.49
2018-03-04T10:06:21.603Z,64.45
2018-03-04T10:07:25.274Z,64.42
2018-03-04T10:08:28.569Z,64.38
2018-03-04T10:09:31.901Z,64.29
2018-03-04T10:10:35.271Z,64.23
2018-03-04T10:11:38.599Z,64.18
2018-03-04T10:12:41.981Z,64.08
2018-03-04T10:13:45.334Z,63.96
2018-03-04T10:14:48.701Z,63.96
2018-03-04T10:15:52.060Z,63.94
2018-03-04T10:16:55.382Z,63.97
2018-03-04T10:17:58.890Z,64.00
2018-03-04T10:19:02.227Z,63.94
2018-03-04T10:20:05.529Z,63.89
2018-03-04T10:21:08.960Z,63.83
2018-03-04T10:22:12.344Z,63.80
2018-03-04T10:23:18.521Z,63.75
2018-03-04T10:24:21.985Z,63.71
2018-03-04T10:25:25.369Z,63.61
2018-03-04T10:26:28.862Z,63.49
2018-03-04T10:27:32.226Z,63.38
2018-03-04T10:28:35.645Z,63.31
2018-03-04T10:29:38.959Z,63.23
2018-03-04T10:30:42.264Z,63.17
2018-03-04T10:31:45.609Z,63.15
2018-03-04T10:32:48.932Z,63.08
2018-03-04T10:33:52.244Z,62.96
2018-03-04T10:34:55.593Z,62.81
2018-03-04T10:35:58.990Z,62.69
2018-03-04T10:37:02.328Z,62.69
2018-03-04T10:38:05.693Z,62.66
2018-03-04T10:39:09.036Z,62.62
2018-03-04T10:40:12.393Z,62.65
2018-03-04T10:41:15.753Z,62.65
2018-03-04T10:42:19.094Z,62.62
2018-03-04T10:43:22.438Z,62.52
2018-03-04T10:44:25.991Z,62.41
2018-03-04T10:45:29.381Z,62.36
2018-03-04T10:46:32.713Z,62.28
2018-03-04T10:47:36.167Z,62.25
2018-03-04T10:48:39.553Z,62.25
2018-03-04T10:49:42.943Z,62.21
2018-03-04T10:50:46.314Z,62.31
2018-03-04T10:51:49.744Z,62.33
2018-03-04T10:52:53.087Z,62.43
2018-03-04T10:53:56.480Z,62.52
2018-03-04T10:54:59.889Z,62.64
2018-03-04T10:56:03.231Z,62.76
2018-03-04T10:57:06.631Z,62.79
2018-03-04T10:58:10.136Z,62.81
2018-03-04T10:59:13.498Z,62.84
2018-03-04T11:00:16.815Z,62.79
2018-03-04T11:01:20.189Z,62.70
2018-03-04T11:02:23.535Z,62.67
2018-03-04T11:03:26.887Z,62.64
2018-03-04T11:04:30.179Z,62.61
2018-03-04T11:05:33.538Z,62.59
2018-03-04T11:06:37.002Z,62.55
2018-03-04T11:07:40.479Z,62.56
2018-03-04T11:08:43.853Z,62.47
2018-03-04T11:09:47.225Z,62.42
2018-03-04T11:10:50.601Z,62.43
2018-03-04T11:11:54.014Z,62.44
2018-03-04T11:12:57.409Z,62.41
2018-03-04T11:14:00.799Z,62.46
2018-03-04T11:15:04.246Z,62.47
2018-03-04T11:16:07.579Z,62.45
2018-03-04T11:17:10.909Z,62.49
2018-03-04T11:18:14.284Z,62.46
2018-03-04T11:19:17.712Z,62.59
2018-03-04T11:20:21.090Z,62.57
2018-03-04T11:21:24.418Z,62.60
2018-03-04T11:22:28.326Z,62.60
2018-03-04T11:23:31.790Z,62.54
2018-03-04T11:24:35.223Z,62.47
2018-03-04T11:25:38.547Z,62.48
2018-03-04T11:26:41.892Z,62.51
2018-03-04T11:27:46.112Z,62.45
2018-03-04T11:28:49.452Z,62.55
2018-03-04T11:29:52.874Z,62.59
2018-03-04T11:30:56.200Z,62.56
2018-03-04T11:31:59.556Z,62.52
2018-03-04T11:33:02.933Z,62.47
2018-03-04T11:34:06.407Z,62.45
2018-03-04T11:35:09.782Z,62.42
2018-03-04T11:36:13.165Z,62.48
2018-03-04T11:37:16.468Z,62.47
2018-03-04T11:38:19.841Z,62.52
2018-03-04T11:39:23.231Z,62.54
2018-03-04T11:40:26.559Z,62.56
2018-03-04T11:41:29.902Z,62.57
2018-03-04T11:42:33.217Z,62.57
2018-03-04T11:43:36.530Z,62.53
2018-03-04T11:44:39.846Z,62.56
2018-03-04T11:45:43.298Z,62.57
2018-03-04T11:46:46.723Z,62.60
2018-03-04T11:47:50.209Z,62.66
2018-03-04T11:48:53.697Z,62.56
2018-03-04T11:49:57.028Z,62.50
2018-03-04T11:51:00.461Z,62.51
2018-03-04T11:52:03.844Z,62.55
2018-03-04T11:53:07.185Z,62.48
2018-03-04T11:54:10.509Z,62.43
2018-03-04T11:55:13.918Z,62.43
2018-03-04T11:56:17.314Z,62.40
2018-03-04T11:57:20.629Z,62.34
2018-03-04T11:58:24.036Z,62.27
2018-03-04T11:59:27.435Z,62.25
2018-03-04T12:00:30.881Z,62.26
2018-03-04T12:01:34.299Z,62.30
2018-03-04T12:02:37.629Z,62.33
2018-03-04T12:03:40.941Z,62.38
2018-03-04T12:04:44.322Z,62.39
2018-03-04T12:05:47.709Z,62.39
2018-03-04T12:06:51.096Z,62.40
2018-03-04T12:07:54.515Z,62.40
2018-03-04T12:08:57.828Z,62.42
2018-03-04T12:10:01.203Z,62.51
2018-03-04T12:11:04.512Z,62.52
2018-03-04T12:12:07.864Z,62.50
2018-03-04T12:13:11.277Z,62.44
2018-03-04T12:14:14.600Z,62.43
2018-03-04T12:15:18.037Z,62.40
2018-03-04T12:16:21.427Z,62.36
2018-03-04T12:17:24.791Z,62.34
2018-03-04T12:18:28.124Z,62.28
2018-03-04T12:19:31.427Z,62.36
2018-03-04T12:20:34.761Z,62.28
2018-03-04T12:21:38.402Z,62.18
2018-03-04T12:22:41.721Z,62.08
2018-03-04T12:23:45.106Z,62.04
2018-03-04T12:24:48.444Z,61.99
2018-03-04T12:25:51.793Z,61.96
2018-03-04T12:26:55.143Z,61.90
2018-03-04T12:27:58.547Z,61.86
2018-03-04T12:29:01.957Z,61.79
2018-03-04T12:30:05.406Z,61.68
2018-03-04T12:31:08.762Z,61.68
2018-03-04T12:32:12.097Z,61.67
2018-03-04T12:33:15.574Z,61.69
2018-03-04T12:34:19.024Z,61.64
2018-03-04T12:35:22.373Z,61.56
2018-03-04T12:36:25.806Z,61.51
2018-03-04T12:37:29.135Z,61.49
2018-03-04T12:38:32.542Z,61.46
2018-03-04T12:39:35.863Z,61.43
2018-03-04T12:40:39.205Z,61.41
2018-03-04T12:41:42.608Z,61.40
2018-03-04T12:42:45.932Z,61.42
2018-03-04T12:43:49.307Z,61.46
2018-03-04T12:44:52.718Z,61.43
2018-03-04T12:45:56.060Z,61.42
2018-03-04T12:46:59.513Z,61.37
2018-03-04T12:48:02.982Z,61.37
2018-03-04T12:49:06.370Z,61.36
2018-03-04T12:50:09.809Z,61.39
2018-03-04T12:51:13.121Z,61.40
2018-03-04T12:52:16.446Z,61.40
2018-03-04T12:53:19.768Z,61.40
2018-03-04T12:54:23.245Z,61.33
2018-03-04T12:55:26.657Z,61.29
2018-03-04T12:56:30.052Z,61.26
2018-03-04T12:57:33.357Z,61.26
2018-03-04T12:58:36.972Z,61.26
2018-03-04T12:59:40.308Z,61.29
2018-03-04T13:00:43.741Z,61.27
2018-03-04T13:01:47.181Z,61.19
2018-03-04T13:02:50.512Z,61.16
2018-03-04T13:03:53.882Z,61.26
2018-03-04T13:04:57.305Z,61.22
2018-03-04T13:06:00.617Z,61.20
2018-03-04T13:07:04.134Z,61.24
2018-03-04T13:08:07.918Z,61.21
2018-03-04T13:09:11.240Z,61.14
2018-03-04T13:10:14.653Z,61.07
2018-03-04T13:11:18.060Z,60.98
2018-03-04T13:12:21.457Z,60.85
2018-03-04T13:13:24.788Z,60.74
2018-03-04T13:14:28.217Z,60.62
2018-03-04T13:15:31.550Z,60.56
2018-03-04T13:16:34.883Z,60.52
2018-03-04T13:17:38.302Z,60.56
2018-03-04T13:18:41.832Z,60.54
2018-03-04T13:19:45.147Z,60.54
2018-03-04T13:20:48.498Z,60.54
2018-03-04T13:21:51.935Z,60.46
2018-03-04T13:22:55.260Z,60.40
2018-03-04T13:24:00.866Z,60.32
2018-03-04T13:25:04.391Z,60.32
2018-03-04T13:26:07.927Z,60.30
2018-03-04T13:27:11.328Z,60.25
2018-03-04T13:28:14.816Z,60.23
2018-03-04T13:29:18.241Z,60.21
2018-03-04T13:30:21.660Z,60.17
2018-03-04T13:31:25.118Z,60.16
2018-03-04T13:32:28.512Z,60.12
2018-03-04T13:33:31.978Z,60.11
2018-03-04T13:34:35.362Z,60.12
2018-03-04T13:35:38.715Z,60.13
2018-03-04T13:36:42.150Z,60.10